sensor_id;sensor_type;location;lat;lon;timestamp;temperature;humidity
13992;DHT22;7070;53.586;9.692;2024-02-28T00:00:25;5.10;87.00
13992;DHT22;7070;53.586;9.692;2024-02-28T00:02:52;5.10;86.10
13992;DHT22;7070;53.586;9.692;2024-02-28T00:05:19;5.10;86.10
13992;DHT22;7070;53.586;9.692;2024-02-28T00:07:46;5.10;86.10
13992;DHT22;7070;53.586;9.692;2024-02-28T00:10:13;5.10;86.10
13992;DHT22;7070;53.586;9.692;2024-02-28T00:12:39;5.00;86.00
13992;DHT22;7070;53.586;9.692;2024-02-28T00:15:08;5.00;86.00
13992;DHT22;7070;53.586;9.692;2024-02-28T00:17:38;5.00;86.30
13992;DHT22;7070;53.586;9.692;2024-02-28T00:20:07;5.00;86.50
13992;DHT22;7070;53.586;9.692;2024-02-28T00:22:35;5.00;86.30
13992;DHT22;7070;53.586;9.692;2024-02-28T00:25:03;5.00;86.60
13992;DHT22;7070;53.586;9.692;2024-02-28T00:27:32;5.00;86.60
13992;DHT22;7070;53.586;9.692;2024-02-28T00:29:59;5.10;86.60
13992;DHT22;7070;53.586;9.692;2024-02-28T00:32:27;5.00;86.60
13992;DHT22;7070;53.586;9.692;2024-02-28T00:34:54;5.00;86.70
13992;DHT22;7070;53.586;9.692;2024-02-28T00:37:21;5.00;87.50
13992;DHT22;7070;53.586;9.692;2024-02-28T00:39:49;5.00;86.80
13992;DHT22;7070;53.586;9.692;2024-02-28T00:42:17;5.00;86.70
13992;DHT22;7070;53.586;9.692;2024-02-28T00:44:43;5.10;86.90
13992;DHT22;7070;53.586;9.692;2024-02-28T00:47:10;5.00;86.80
13992;DHT22;7070;53.586;9.692;2024-02-28T00:49:39;5.10;87.00
13992;DHT22;7070;53.586;9.692;2024-02-28T00:52:06;5.10;87.00
13992;DHT22;7070;53.586;9.692;2024-02-28T00:54:33;5.10;87.10
13992;DHT22;7070;53.586;9.692;2024-02-28T00:57:00;5.10;87.10
13992;DHT22;7070;53.586;9.692;2024-02-28T00:59:26;5.10;87.00
13992;DHT22;7070;53.586;9.692;2024-02-28T01:01:53;5.00;87.00
13992;DHT22;7070;53.586;9.692;2024-02-28T01:04:20;5.10;87.10
13992;DHT22;7070;53.586;9.692;2024-02-28T01:06:48;5.10;87.20
13992;DHT22;7070;53.586;9.692;2024-02-28T01:09:15;5.00;87.20
13992;DHT22;7070;53.586;9.692;2024-02-28T01:11:42;5.00;87.10
13992;DHT22;7070;53.586;9.692;2024-02-28T01:14:09;5.20;87.30
13992;DHT22;7070;53.586;9.692;2024-02-28T01:16:35;5.00;87.20
13992;DHT22;7070;53.586;9.692;2024-02-28T01:19:03;5.00;87.10
13992;DHT22;7070;53.586;9.692;2024-02-28T01:21:30;5.00;87.20
13992;DHT22;7070;53.586;9.692;2024-02-28T01:23:58;5.10;87.20
13992;DHT22;7070;53.586;9.692;2024-02-28T01:26:25;5.10;87.20
13992;DHT22;7070;53.586;9.692;2024-02-28T01:28:52;5.00;87.20
13992;DHT22;7070;53.586;9.692;2024-02-28T01:31:18;5.00;87.20
13992;DHT22;7070;53.586;9.692;2024-02-28T01:33:45;5.00;87.20
13992;DHT22;7070;53.586;9.692;2024-02-28T01:36:13;5.00;87.30
13992;DHT22;7070;53.586;9.692;2024-02-28T01:38:40;5.00;87.30
13992;DHT22;7070;53.586;9.692;2024-02-28T01:41:08;5.00;87.40
13992;DHT22;7070;53.586;9.692;2024-02-28T01:43:35;5.00;87.40
13992;DHT22;7070;53.586;9.692;2024-02-28T01:46:17;5.00;87.50
13992;DHT22;7070;53.586;9.692;2024-02-28T01:48:46;5.00;87.40
13992;DHT22;7070;53.586;9.692;2024-02-28T01:51:13;5.00;87.40
13992;DHT22;7070;53.586;9.692;2024-02-28T01:53:40;5.00;87.60
13992;DHT22;7070;53.586;9.692;2024-02-28T01:56:08;4.90;87.50
13992;DHT22;7070;53.586;9.692;2024-02-28T01:58:35;4.90;87.60
13992;DHT22;7070;53.586;9.692;2024-02-28T02:01:03;5.00;87.70
13992;DHT22;7070;53.586;9.692;2024-02-28T02:03:32;5.00;87.70
13992;DHT22;7070;53.586;9.692;2024-02-28T02:06:01;4.90;87.60
13992;DHT22;7070;53.586;9.692;2024-02-28T02:08:29;4.90;87.60
13992;DHT22;7070;53.586;9.692;2024-02-28T02:10:56;4.90;87.70
13992;DHT22;7070;53.586;9.692;2024-02-28T02:13:24;4.90;87.60
13992;DHT22;7070;53.586;9.692;2024-02-28T02:15:51;4.90;87.60
13992;DHT22;7070;53.586;9.692;2024-02-28T02:18:18;4.90;87.70
13992;DHT22;7070;53.586;9.692;2024-02-28T02:20:50;4.90;87.70
13992;DHT22;7070;53.586;9.692;2024-02-28T02:23:21;4.90;87.80
13992;DHT22;7070;53.586;9.692;2024-02-28T02:25:49;4.80;87.60
13992;DHT22;7070;53.586;9.692;2024-02-28T02:28:16;4.90;87.80
13992;DHT22;7070;53.586;9.692;2024-02-28T02:30:43;4.90;87.80
13992;DHT22;7070;53.586;9.692;2024-02-28T02:33:10;4.80;87.70
13992;DHT22;7070;53.586;9.692;2024-02-28T02:35:37;4.80;87.70
13992;DHT22;7070;53.586;9.692;2024-02-28T02:38:04;4.80;87.80
13992;DHT22;7070;53.586;9.692;2024-02-28T02:40:32;4.80;87.80
13992;DHT22;7070;53.586;9.692;2024-02-28T02:42:59;4.90;87.90
13992;DHT22;7070;53.586;9.692;2024-02-28T02:45:26;4.90;88.60
13992;DHT22;7070;53.586;9.692;2024-02-28T02:47:53;4.80;87.70
13992;DHT22;7070;53.586;9.692;2024-02-28T02:50:20;4.90;87.90
13992;DHT22;7070;53.586;9.692;2024-02-28T02:52:46;4.80;88.60
13992;DHT22;7070;53.586;9.692;2024-02-28T02:55:13;4.80;87.80
13992;DHT22;7070;53.586;9.692;2024-02-28T02:57:42;4.90;87.70
13992;DHT22;7070;53.586;9.692;2024-02-28T03:00:10;4.90;87.80
13992;DHT22;7070;53.586;9.692;2024-02-28T03:02:37;4.80;87.80
13992;DHT22;7070;53.586;9.692;2024-02-28T03:05:05;4.80;87.80
13992;DHT22;7070;53.586;9.692;2024-02-28T03:07:33;4.80;87.80
13992;DHT22;7070;53.586;9.692;2024-02-28T03:09:59;4.90;88.60
13992;DHT22;7070;53.586;9.692;2024-02-28T03:12:27;4.90;87.80
13992;DHT22;7070;53.586;9.692;2024-02-28T03:14:55;4.90;87.80
13992;DHT22;7070;53.586;9.692;2024-02-28T03:17:22;5.00;88.60
13992;DHT22;7070;53.586;9.692;2024-02-28T03:19:49;4.90;87.80
13992;DHT22;7070;53.586;9.692;2024-02-28T03:22:16;5.00;87.70
13992;DHT22;7070;53.586;9.692;2024-02-28T03:24:43;5.00;87.80
13992;DHT22;7070;53.586;9.692;2024-02-28T03:27:10;5.00;87.70
13992;DHT22;7070;53.586;9.692;2024-02-28T03:29:37;5.00;87.70
13992;DHT22;7070;53.586;9.692;2024-02-28T03:32:05;5.00;87.70
13992;DHT22;7070;53.586;9.692;2024-02-28T03:34:32;5.00;87.70
13992;DHT22;7070;53.586;9.692;2024-02-28T03:36:59;5.00;87.70
13992;DHT22;7070;53.586;9.692;2024-02-28T03:39:26;5.00;87.80
13992;DHT22;7070;53.586;9.692;2024-02-28T03:41:53;5.00;87.80
13992;DHT22;7070;53.586;9.692;2024-02-28T03:44:20;5.10;87.90
13992;DHT22;7070;53.586;9.692;2024-02-28T03:46:47;5.00;87.90
13992;DHT22;7070;53.586;9.692;2024-02-28T03:49:15;5.10;87.90
13992;DHT22;7070;53.586;9.692;2024-02-28T03:51:42;5.00;87.80
13992;DHT22;7070;53.586;9.692;2024-02-28T03:54:09;5.00;88.40
13992;DHT22;7070;53.586;9.692;2024-02-28T03:56:36;5.10;87.70
13992;DHT22;7070;53.586;9.692;2024-02-28T03:59:03;5.10;87.70
13992;DHT22;7070;53.586;9.692;2024-02-28T04:01:30;5.00;87.70
13992;DHT22;7070;53.586;9.692;2024-02-28T04:03:57;5.00;87.60
13992;DHT22;7070;53.586;9.692;2024-02-28T04:06:25;5.00;87.60
13992;DHT22;7070;53.586;9.692;2024-02-28T04:08:52;5.00;87.50
13992;DHT22;7070;53.586;9.692;2024-02-28T04:11:19;5.00;87.50
13992;DHT22;7070;53.586;9.692;2024-02-28T04:13:46;5.00;87.50
13992;DHT22;7070;53.586;9.692;2024-02-28T04:16:13;4.90;87.30
13992;DHT22;7070;53.586;9.692;2024-02-28T04:18:40;4.90;87.30
13992;DHT22;7070;53.586;9.692;2024-02-28T04:21:07;4.90;87.20
13992;DHT22;7070;53.586;9.692;2024-02-28T04:23:35;4.80;87.00
13992;DHT22;7070;53.586;9.692;2024-02-28T04:26:03;4.70;87.00
13992;DHT22;7070;53.586;9.692;2024-02-28T04:28:30;4.70;87.00
13992;DHT22;7070;53.586;9.692;2024-02-28T04:30:57;4.60;87.00
13992;DHT22;7070;53.586;9.692;2024-02-28T04:33:24;4.70;87.20
13992;DHT22;7070;53.586;9.692;2024-02-28T04:35:51;4.60;87.40
13992;DHT22;7070;53.586;9.692;2024-02-28T04:38:18;4.70;87.60
13992;DHT22;7070;53.586;9.692;2024-02-28T04:40:46;4.50;87.50
13992;DHT22;7070;53.586;9.692;2024-02-28T04:43:13;4.60;87.80
13992;DHT22;7070;53.586;9.692;2024-02-28T04:45:39;4.60;87.80
13992;DHT22;7070;53.586;9.692;2024-02-28T04:48:07;4.50;87.80
13992;DHT22;7070;53.586;9.692;2024-02-28T04:50:33;4.60;87.90
13992;DHT22;7070;53.586;9.692;2024-02-28T04:53:00;4.60;87.90
13992;DHT22;7070;53.586;9.692;2024-02-28T04:55:28;4.60;87.90
13992;DHT22;7070;53.586;9.692;2024-02-28T04:57:56;4.60;87.90
13992;DHT22;7070;53.586;9.692;2024-02-28T05:00:23;4.60;87.90
13992;DHT22;7070;53.586;9.692;2024-02-28T05:02:50;4.60;87.90
13992;DHT22;7070;53.586;9.692;2024-02-28T05:05:16;4.60;87.80
13992;DHT22;7070;53.586;9.692;2024-02-28T05:07:43;4.60;87.90
13992;DHT22;7070;53.586;9.692;2024-02-28T05:10:10;4.60;87.90
13992;DHT22;7070;53.586;9.692;2024-02-28T05:12:37;4.70;88.00
13992;DHT22;7070;53.586;9.692;2024-02-28T05:15:06;4.60;87.80
13992;DHT22;7070;53.586;9.692;2024-02-28T05:17:33;4.60;88.00
13992;DHT22;7070;53.586;9.692;2024-02-28T05:20:00;4.50;88.00
13992;DHT22;7070;53.586;9.692;2024-02-28T05:22:27;4.60;88.20
13992;DHT22;7070;53.586;9.692;2024-02-28T05:24:54;4.60;88.30
13992;DHT22;7070;53.586;9.692;2024-02-28T05:27:20;4.60;88.40
13992;DHT22;7070;53.586;9.692;2024-02-28T05:29:47;4.70;88.50
13992;DHT22;7070;53.586;9.692;2024-02-28T05:32:16;4.60;88.40
13992;DHT22;7070;53.586;9.692;2024-02-28T05:34:44;4.60;88.50
13992;DHT22;7070;53.586;9.692;2024-02-28T05:37:11;4.70;88.60
13992;DHT22;7070;53.586;9.692;2024-02-28T05:39:38;4.70;88.50
13992;DHT22;7070;53.586;9.692;2024-02-28T05:42:05;4.70;88.60
13992;DHT22;7070;53.586;9.692;2024-02-28T05:44:32;4.70;88.70
13992;DHT22;7070;53.586;9.692;2024-02-28T05:46:59;4.80;88.80
13992;DHT22;7070;53.586;9.692;2024-02-28T05:49:28;4.80;88.80
13992;DHT22;7070;53.586;9.692;2024-02-28T05:51:55;4.80;88.80
13992;DHT22;7070;53.586;9.692;2024-02-28T05:54:22;4.80;88.80
13992;DHT22;7070;53.586;9.692;2024-02-28T05:56:48;4.90;88.80
13992;DHT22;7070;53.586;9.692;2024-02-28T05:59:15;4.80;88.60
13992;DHT22;7070;53.586;9.692;2024-02-28T06:01:43;4.90;88.70
13992;DHT22;7070;53.586;9.692;2024-02-28T06:04:11;4.90;88.60
13992;DHT22;7070;53.586;9.692;2024-02-28T06:06:39;4.80;88.50
13992;DHT22;7070;53.586;9.692;2024-02-28T06:09:06;4.80;88.50
13992;DHT22;7070;53.586;9.692;2024-02-28T06:11:34;4.80;88.40
13992;DHT22;7070;53.586;9.692;2024-02-28T06:14:02;4.80;88.30
13992;DHT22;7070;53.586;9.692;2024-02-28T06:16:29;4.70;88.20
13992;DHT22;7070;53.586;9.692;2024-02-28T06:18:56;4.70;88.10
13992;DHT22;7070;53.586;9.692;2024-02-28T06:21:23;4.70;88.10
13992;DHT22;7070;53.586;9.692;2024-02-28T06:23:51;4.70;88.10
13992;DHT22;7070;53.586;9.692;2024-02-28T06:26:18;4.60;87.90
13992;DHT22;7070;53.586;9.692;2024-02-28T06:28:46;4.50;87.80
13992;DHT22;7070;53.586;9.692;2024-02-28T06:31:15;4.40;87.80
13992;DHT22;7070;53.586;9.692;2024-02-28T06:33:42;4.40;87.70
13992;DHT22;7070;53.586;9.692;2024-02-28T06:36:09;4.40;88.00
13992;DHT22;7070;53.586;9.692;2024-02-28T06:38:36;4.30;87.90
13992;DHT22;7070;53.586;9.692;2024-02-28T06:41:04;4.30;87.90
13992;DHT22;7070;53.586;9.692;2024-02-28T06:43:33;4.20;87.70
13992;DHT22;7070;53.586;9.692;2024-02-28T06:46:01;4.20;87.80
13992;DHT22;7070;53.586;9.692;2024-02-28T06:48:28;4.20;88.00
13992;DHT22;7070;53.586;9.692;2024-02-28T06:50:55;4.10;88.10
13992;DHT22;7070;53.586;9.692;2024-02-28T06:53:23;4.10;88.40
13992;DHT22;7070;53.586;9.692;2024-02-28T06:55:50;4.10;88.60
13992;DHT22;7070;53.586;9.692;2024-02-28T06:58:18;4.20;89.00
13992;DHT22;7070;53.586;9.692;2024-02-28T07:00:45;4.20;89.20
13992;DHT22;7070;53.586;9.692;2024-02-28T07:03:12;4.30;89.50
13992;DHT22;7070;53.586;9.692;2024-02-28T07:05:39;4.40;89.60
13992;DHT22;7070;53.586;9.692;2024-02-28T07:08:06;4.40;89.70
13992;DHT22;7070;53.586;9.692;2024-02-28T07:10:36;4.50;89.80
13992;DHT22;7070;53.586;9.692;2024-02-28T07:13:03;4.60;89.90
13992;DHT22;7070;53.586;9.692;2024-02-28T07:15:31;4.70;89.90
13992;DHT22;7070;53.586;9.692;2024-02-28T07:17:58;4.80;89.90
13992;DHT22;7070;53.586;9.692;2024-02-28T07:20:25;4.90;90.00
13992;DHT22;7070;53.586;9.692;2024-02-28T07:22:52;4.90;90.00
13992;DHT22;7070;53.586;9.692;2024-02-28T07:25:19;4.90;89.90
13992;DHT22;7070;53.586;9.692;2024-02-28T07:27:45;5.00;90.00
13992;DHT22;7070;53.586;9.692;2024-02-28T07:30:13;5.10;90.10
13992;DHT22;7070;53.586;9.692;2024-02-28T07:32:41;5.20;90.10
13992;DHT22;7070;53.586;9.692;2024-02-28T07:35:08;5.30;90.10
13992;DHT22;7070;53.586;9.692;2024-02-28T07:37:35;5.30;90.00
13992;DHT22;7070;53.586;9.692;2024-02-28T07:40:04;5.40;89.90
13992;DHT22;7070;53.586;9.692;2024-02-28T07:42:31;5.50;89.80
13992;DHT22;7070;53.586;9.692;2024-02-28T07:44:57;5.40;89.80
13992;DHT22;7070;53.586;9.692;2024-02-28T07:47:24;5.50;89.90
13992;DHT22;7070;53.586;9.692;2024-02-28T07:49:52;5.50;90.00
13992;DHT22;7070;53.586;9.692;2024-02-28T07:52:20;5.60;90.10
13992;DHT22;7070;53.586;9.692;2024-02-28T07:54:47;5.70;90.10
13992;DHT22;7070;53.586;9.692;2024-02-28T07:57:14;5.70;90.10
13992;DHT22;7070;53.586;9.692;2024-02-28T07:59:41;5.80;90.10
13992;DHT22;7070;53.586;9.692;2024-02-28T08:02:09;5.90;90.10
13992;DHT22;7070;53.586;9.692;2024-02-28T08:04:37;6.10;90.20
13992;DHT22;7070;53.586;9.692;2024-02-28T08:07:05;5.90;90.00
13992;DHT22;7070;53.586;9.692;2024-02-28T08:09:32;6.00;90.00
13992;DHT22;7070;53.586;9.692;2024-02-28T08:11:59;6.00;90.00
13992;DHT22;7070;53.586;9.692;2024-02-28T08:14:27;5.90;89.80
13992;DHT22;7070;53.586;9.692;2024-02-28T08:16:54;6.00;89.80
13992;DHT22;7070;53.586;9.692;2024-02-28T08:19:21;6.00;89.90
13992;DHT22;7070;53.586;9.692;2024-02-28T08:21:48;6.00;89.90
13992;DHT22;7070;53.586;9.692;2024-02-28T08:24:16;6.10;90.00
13992;DHT22;7070;53.586;9.692;2024-02-28T08:26:43;6.20;90.00
13992;DHT22;7070;53.586;9.692;2024-02-28T08:29:10;6.20;90.10
13992;DHT22;7070;53.586;9.692;2024-02-28T08:31:40;6.20;90.10
13992;DHT22;7070;53.586;9.692;2024-02-28T08:34:08;6.20;90.10
13992;DHT22;7070;53.586;9.692;2024-02-28T08:36:35;6.30;90.00
13992;DHT22;7070;53.586;9.692;2024-02-28T08:39:02;6.40;90.00
13992;DHT22;7070;53.586;9.692;2024-02-28T08:41:34;6.40;90.00
13992;DHT22;7070;53.586;9.692;2024-02-28T08:44:01;6.40;90.00
13992;DHT22;7070;53.586;9.692;2024-02-28T08:46:27;6.50;90.10
13992;DHT22;7070;53.586;9.692;2024-02-28T08:48:54;6.60;90.20
13992;DHT22;7070;53.586;9.692;2024-02-28T08:51:21;6.70;90.30
13992;DHT22;7070;53.586;9.692;2024-02-28T08:53:48;6.70;90.40
13992;DHT22;7070;53.586;9.692;2024-02-28T08:56:17;6.90;90.50
13992;DHT22;7070;53.586;9.692;2024-02-28T08:58:45;7.00;90.50
13992;DHT22;7070;53.586;9.692;2024-02-28T09:01:14;7.10;90.60
13992;DHT22;7070;53.586;9.692;2024-02-28T09:03:41;7.20;90.70
13992;DHT22;7070;53.586;9.692;2024-02-28T09:06:08;7.40;90.70
13992;DHT22;7070;53.586;9.692;2024-02-28T09:08:35;7.60;90.80
13992;DHT22;7070;53.586;9.692;2024-02-28T09:11:02;7.70;90.60
13992;DHT22;7070;53.586;9.692;2024-02-28T09:13:30;7.80;90.80
13992;DHT22;7070;53.586;9.692;2024-02-28T09:15:58;8.00;90.50
13992;DHT22;7070;53.586;9.692;2024-02-28T09:18:25;8.10;90.50
13992;DHT22;7070;53.586;9.692;2024-02-28T09:20:52;8.20;90.40
13992;DHT22;7070;53.586;9.692;2024-02-28T09:23:19;8.30;90.30
13992;DHT22;7070;53.586;9.692;2024-02-28T09:25:46;8.40;90.30
13992;DHT22;7070;53.586;9.692;2024-02-28T09:28:13;8.60;90.30
13992;DHT22;7070;53.586;9.692;2024-02-28T09:30:41;8.60;90.20
13992;DHT22;7070;53.586;9.692;2024-02-28T09:33:10;8.70;90.20
13992;DHT22;7070;53.586;9.692;2024-02-28T09:35:37;8.70;90.00
13992;DHT22;7070;53.586;9.692;2024-02-28T09:38:04;8.90;89.90
13992;DHT22;7070;53.586;9.692;2024-02-28T09:40:31;8.90;89.50
13992;DHT22;7070;53.586;9.692;2024-02-28T09:43:01;8.90;89.00
13992;DHT22;7070;53.586;9.692;2024-02-28T09:45:29;8.90;88.80
13992;DHT22;7070;53.586;9.692;2024-02-28T09:47:58;9.00;88.90
13992;DHT22;7070;53.586;9.692;2024-02-28T09:50:27;9.10;89.20
13992;DHT22;7070;53.586;9.692;2024-02-28T09:52:54;9.10;89.00
13992;DHT22;7070;53.586;9.692;2024-02-28T09:55:21;9.20;89.00
13992;DHT22;7070;53.586;9.692;2024-02-28T09:57:48;9.20;88.90
13992;DHT22;7070;53.586;9.692;2024-02-28T10:00:19;9.30;89.10
13992;DHT22;7070;53.586;9.692;2024-02-28T10:02:47;9.40;89.20
13992;DHT22;7070;53.586;9.692;2024-02-28T10:05:15;9.50;89.20
13992;DHT22;7070;53.586;9.692;2024-02-28T10:07:45;9.60;89.20
13992;DHT22;7070;53.586;9.692;2024-02-28T10:10:12;9.70;89.20
13992;DHT22;7070;53.586;9.692;2024-02-28T10:12:41;9.90;89.20
13992;DHT22;7070;53.586;9.692;2024-02-28T10:15:09;10.10;88.20
13992;DHT22;7070;53.586;9.692;2024-02-28T10:17:36;10.00;87.90
13992;DHT22;7070;53.586;9.692;2024-02-28T10:20:04;10.20;88.00
13992;DHT22;7070;53.586;9.692;2024-02-28T10:22:34;10.20;87.90
13992;DHT22;7070;53.586;9.692;2024-02-28T10:25:03;10.40;88.00
13992;DHT22;7070;53.586;9.692;2024-02-28T10:27:32;10.50;88.00
13992;DHT22;7070;53.586;9.692;2024-02-28T10:29:59;10.60;87.90
13992;DHT22;7070;53.586;9.692;2024-02-28T10:32:30;10.70;87.90
13992;DHT22;7070;53.586;9.692;2024-02-28T10:34:57;10.70;87.70
13992;DHT22;7070;53.586;9.692;2024-02-28T10:37:27;10.90;87.70
13992;DHT22;7070;53.586;9.692;2024-02-28T10:39:57;10.90;87.40
13992;DHT22;7070;53.586;9.692;2024-02-28T10:42:27;10.90;87.00
13992;DHT22;7070;53.586;9.692;2024-02-28T10:44:57;10.90;86.60
13992;DHT22;7070;53.586;9.692;2024-02-28T10:47:25;11.00;86.50
13992;DHT22;7070;53.586;9.692;2024-02-28T10:49:52;11.00;86.20
13992;DHT22;7070;53.586;9.692;2024-02-28T10:52:21;10.90;85.90
13992;DHT22;7070;53.586;9.692;2024-02-28T10:54:53;10.80;85.80
13992;DHT22;7070;53.586;9.692;2024-02-28T10:57:22;10.80;85.80
13992;DHT22;7070;53.586;9.692;2024-02-28T10:59:52;10.80;85.70
13992;DHT22;7070;53.586;9.692;2024-02-28T11:02:20;10.80;85.60
13992;DHT22;7070;53.586;9.692;2024-02-28T11:04:48;10.80;85.60
13992;DHT22;7070;53.586;9.692;2024-02-28T11:07:20;10.70;85.40
13992;DHT22;7070;53.586;9.692;2024-02-28T11:09:47;10.60;85.30
13992;DHT22;7070;53.586;9.692;2024-02-28T11:12:24;10.60;85.10
13992;DHT22;7070;53.586;9.692;2024-02-28T11:14:58;10.60;85.10
13992;DHT22;7070;53.586;9.692;2024-02-28T11:17:26;10.60;85.00
13992;DHT22;7070;53.586;9.692;2024-02-28T11:19:54;10.60;85.00
13992;DHT22;7070;53.586;9.692;2024-02-28T11:22:21;10.50;84.80
13992;DHT22;7070;53.586;9.692;2024-02-28T11:24:48;10.60;85.00
13992;DHT22;7070;53.586;9.692;2024-02-28T11:27:16;10.50;85.00
13992;DHT22;7070;53.586;9.692;2024-02-28T11:29:43;10.60;85.30
13992;DHT22;7070;53.586;9.692;2024-02-28T11:32:13;10.50;85.20
13992;DHT22;7070;53.586;9.692;2024-02-28T11:34:41;10.50;85.40
13992;DHT22;7070;53.586;9.692;2024-02-28T11:37:10;10.60;85.40
13992;DHT22;7070;53.586;9.692;2024-02-28T11:39:37;10.60;85.20
13992;DHT22;7070;53.586;9.692;2024-02-28T11:42:11;10.60;85.00
13992;DHT22;7070;53.586;9.692;2024-02-28T11:44:38;10.60;84.80
13992;DHT22;7070;53.586;9.692;2024-02-28T11:47:07;10.50;85.20
13992;DHT22;7070;53.586;9.692;2024-02-28T11:49:36;10.50;84.40
13992;DHT22;7070;53.586;9.692;2024-02-28T11:52:03;10.50;84.40
13992;DHT22;7070;53.586;9.692;2024-02-28T11:54:30;10.50;84.30
13992;DHT22;7070;53.586;9.692;2024-02-28T11:56:57;10.40;84.20
13992;DHT22;7070;53.586;9.692;2024-02-28T11:59:24;10.40;84.30
13992;DHT22;7070;53.586;9.692;2024-02-28T12:01:51;10.40;84.40
13992;DHT22;7070;53.586;9.692;2024-02-28T12:04:24;10.40;84.60
13992;DHT22;7070;53.586;9.692;2024-02-28T12:06:53;10.30;84.70
13992;DHT22;7070;53.586;9.692;2024-02-28T12:09:19;10.30;84.80
13992;DHT22;7070;53.586;9.692;2024-02-28T12:11:46;10.30;85.70
13992;DHT22;7070;53.586;9.692;2024-02-28T12:14:13;10.40;85.10
13992;DHT22;7070;53.586;9.692;2024-02-28T12:16:40;10.30;85.00
13992;DHT22;7070;53.586;9.692;2024-02-28T12:19:10;10.30;85.00
13992;DHT22;7070;53.586;9.692;2024-02-28T12:21:37;10.20;84.90
13992;DHT22;7070;53.586;9.692;2024-02-28T12:24:07;10.30;85.10
13992;DHT22;7070;53.586;9.692;2024-02-28T12:26:35;10.20;84.90
13992;DHT22;7070;53.586;9.692;2024-02-28T12:29:02;10.30;85.10
13992;DHT22;7070;53.586;9.692;2024-02-28T12:31:29;10.30;85.20
13992;DHT22;7070;53.586;9.692;2024-02-28T12:33:56;10.30;85.20
13992;DHT22;7070;53.586;9.692;2024-02-28T12:36:23;10.30;85.10
13992;DHT22;7070;53.586;9.692;2024-02-28T12:38:50;10.30;85.20
13992;DHT22;7070;53.586;9.692;2024-02-28T12:41:19;10.30;85.10
13992;DHT22;7070;53.586;9.692;2024-02-28T12:43:45;10.30;85.10
13992;DHT22;7070;53.586;9.692;2024-02-28T12:46:12;10.50;85.40
13992;DHT22;7070;53.586;9.692;2024-02-28T12:48:40;10.20;85.10
13992;DHT22;7070;53.586;9.692;2024-02-28T12:51:09;10.20;85.20
13992;DHT22;7070;53.586;9.692;2024-02-28T12:53:37;10.20;85.30
13992;DHT22;7070;53.586;9.692;2024-02-28T12:56:04;10.20;85.30
13992;DHT22;7070;53.586;9.692;2024-02-28T12:58:33;10.20;85.40
13992;DHT22;7070;53.586;9.692;2024-02-28T13:00:59;10.20;85.30
13992;DHT22;7070;53.586;9.692;2024-02-28T13:03:26;10.10;85.20
13992;DHT22;7070;53.586;9.692;2024-02-28T13:05:53;10.10;85.70
13992;DHT22;7070;53.586;9.692;2024-02-28T13:08:20;10.10;85.00
13992;DHT22;7070;53.586;9.692;2024-02-28T13:10:47;10.10;84.90
13992;DHT22;7070;53.586;9.692;2024-02-28T13:13:14;10.00;84.90
13992;DHT22;7070;53.586;9.692;2024-02-28T13:15:42;10.00;84.90
13992;DHT22;7070;53.586;9.692;2024-02-28T13:18:10;10.00;85.20
13992;DHT22;7070;53.586;9.692;2024-02-28T13:20:37;9.90;86.20
13992;DHT22;7070;53.586;9.692;2024-02-28T13:23:05;10.00;85.40
13992;DHT22;7070;53.586;9.692;2024-02-28T13:25:32;10.00;85.50
13992;DHT22;7070;53.586;9.692;2024-02-28T13:27:59;10.00;85.60
13992;DHT22;7070;53.586;9.692;2024-02-28T13:30:26;10.00;85.60
13992;DHT22;7070;53.586;9.692;2024-02-28T13:32:54;10.10;85.60
13992;DHT22;7070;53.586;9.692;2024-02-28T13:35:22;10.00;85.30
13992;DHT22;7070;53.586;9.692;2024-02-28T13:37:49;10.00;85.40
13992;DHT22;7070;53.586;9.692;2024-02-28T13:40:16;10.00;85.40
13992;DHT22;7070;53.586;9.692;2024-02-28T13:42:42;10.10;85.50
13992;DHT22;7070;53.586;9.692;2024-02-28T13:45:11;10.10;85.60
13992;DHT22;7070;53.586;9.692;2024-02-28T13:47:38;10.10;85.70
13992;DHT22;7070;53.586;9.692;2024-02-28T13:50:07;10.10;85.80
13992;DHT22;7070;53.586;9.692;2024-02-28T13:52:35;10.10;85.90
13992;DHT22;7070;53.586;9.692;2024-02-28T13:55:02;10.20;86.10
13992;DHT22;7070;53.586;9.692;2024-02-28T13:57:29;10.20;86.10
13992;DHT22;7070;53.586;9.692;2024-02-28T13:59:56;10.30;86.00
13992;DHT22;7070;53.586;9.692;2024-02-28T14:02:23;10.30;85.80
13992;DHT22;7070;53.586;9.692;2024-02-28T14:04:51;10.30;85.80
13992;DHT22;7070;53.586;9.692;2024-02-28T14:07:20;10.30;85.70
13992;DHT22;7070;53.586;9.692;2024-02-28T14:09:46;10.30;85.60
13992;DHT22;7070;53.586;9.692;2024-02-28T14:12:13;10.30;85.50
13992;DHT22;7070;53.586;9.692;2024-02-28T14:14:40;10.30;85.40
13992;DHT22;7070;53.586;9.692;2024-02-28T14:17:07;10.40;85.40
13992;DHT22;7070;53.586;9.692;2024-02-28T14:19:34;10.30;85.20
13992;DHT22;7070;53.586;9.692;2024-02-28T14:22:02;10.30;85.00
13992;DHT22;7070;53.586;9.692;2024-02-28T14:24:30;10.30;85.00
13992;DHT22;7070;53.586;9.692;2024-02-28T14:26:57;10.30;84.90
13992;DHT22;7070;53.586;9.692;2024-02-28T14:29:24;10.30;85.10
13992;DHT22;7070;53.586;9.692;2024-02-28T14:31:52;10.20;85.00
13992;DHT22;7070;53.586;9.692;2024-02-28T14:34:18;10.40;85.20
13992;DHT22;7070;53.586;9.692;2024-02-28T14:36:45;10.20;85.10
13992;DHT22;7070;53.586;9.692;2024-02-28T14:39:12;10.20;85.00
13992;DHT22;7070;53.586;9.692;2024-02-28T14:41:42;10.20;85.10
13992;DHT22;7070;53.586;9.692;2024-02-28T14:44:10;10.30;85.20
13992;DHT22;7070;53.586;9.692;2024-02-28T14:46:37;10.10;85.30
13992;DHT22;7070;53.586;9.692;2024-02-28T14:49:04;10.10;85.30
13992;DHT22;7070;53.586;9.692;2024-02-28T14:51:31;10.10;85.40
13992;DHT22;7070;53.586;9.692;2024-02-28T14:53:58;10.00;85.50
13992;DHT22;7070;53.586;9.692;2024-02-28T14:56:25;10.00;85.50
13992;DHT22;7070;53.586;9.692;2024-02-28T14:58:54;9.90;86.60
13992;DHT22;7070;53.586;9.692;2024-02-28T15:01:22;10.00;85.70
13992;DHT22;7070;53.586;9.692;2024-02-28T15:03:50;10.00;85.80
13992;DHT22;7070;53.586;9.692;2024-02-28T15:06:17;10.00;85.90
13992;DHT22;7070;53.586;9.692;2024-02-28T15:08:44;10.00;85.80
13992;DHT22;7070;53.586;9.692;2024-02-28T15:11:11;10.00;85.70
13992;DHT22;7070;53.586;9.692;2024-02-28T15:16:44;9.90;86.60
13992;DHT22;7070;53.586;9.692;2024-02-28T15:19:11;9.90;86.60
13992;DHT22;7070;53.586;9.692;2024-02-28T15:21:38;9.90;86.50
13992;DHT22;7070;53.586;9.692;2024-02-28T15:24:05;9.90;86.60
13992;DHT22;7070;53.586;9.692;2024-02-28T15:26:32;9.90;86.70
13992;DHT22;7070;53.586;9.692;2024-02-28T15:28:58;9.80;86.70
13992;DHT22;7070;53.586;9.692;2024-02-28T15:31:26;9.80;86.70
13992;DHT22;7070;53.586;9.692;2024-02-28T15:33:54;9.80;86.60
13992;DHT22;7070;53.586;9.692;2024-02-28T15:36:21;9.80;86.70
13992;DHT22;7070;53.586;9.692;2024-02-28T15:38:47;9.70;86.50
13992;DHT22;7070;53.586;9.692;2024-02-28T15:41:14;9.60;86.40
13992;DHT22;7070;53.586;9.692;2024-02-28T15:43:41;9.50;86.40
13992;DHT22;7070;53.586;9.692;2024-02-28T15:46:07;9.60;86.50
13992;DHT22;7070;53.586;9.692;2024-02-28T15:48:36;9.50;86.50
13992;DHT22;7070;53.586;9.692;2024-02-28T15:51:04;9.50;86.40
13992;DHT22;7070;53.586;9.692;2024-02-28T15:53:32;9.50;86.10
13992;DHT22;7070;53.586;9.692;2024-02-28T15:56:00;9.50;86.00
13992;DHT22;7070;53.586;9.692;2024-02-28T15:58:27;9.50;86.00
13992;DHT22;7070;53.586;9.692;2024-02-28T16:00:54;9.40;86.00